Randlett, Oklahoma
Current Conditions -  °F | °C
As of 11:52 PM on Monday 26 Jan 2015 (Local Time) from KSPS Reporting Station
Clear Clear  
Wind Chill: 54°   Ceiling: Unl
Heat Index: 54°   Visibility: 10mi
Dew Point: 36°   Wind: 9mph
Humidity: 51%   Direction: 290°WNW
Pressure: 30.1"   Gusts: NA
Location:  34.18°N, 98.46°W
Report Text: KSPS 270552Z AUTO 29008KT 10SM CLR 12/02 A3010 RMK AO2 SLP188 T01220022 10194 20100 402330006 51007
Loading
Personal Weather Stations






























Interactive Weather Map New forecast layout! Learn more

10-Day Weather Forecast

Advertisements
Track Severe Weather on mobile